»·PEaware :: N7GL KRAL-KSAN

N7GL :: KRAL-KSAN

FLIGHT INFORMATION

Flight Status: Arrived
Operator: Privately registered:
United States
More flights under this callsign
Pilot: Georg L. (13308)
Aircraft: BEECH AIRCRAFT SUPER KING AIR 350
(B350)
More flights by this aircraft type
Origin: KRAL Riverside Mun
United States
Destination: KSAN San Diego Intl-Lindbergh
United States
More flights between these airports :: More routes between these airports
Route: +RAL1 PDZ V186 HAILE V66 MZB
File this flight plan on PilotEdge
Remarks:
Altitude:
(Current/Filed)
16,000ft
Speed:
(Current/Filed)
295kts
Departed: 17-Oct-20 07:42 AM
Arrived: 17-Oct-20 08:11 AM
Distance/Time
Traveled:
74nm/0:29
Distance/Time
To Go:
Arrived

Flight Plot

Page will automatically refresh every two minutes.

Flight plan parsing failed; only flown route is shown


Map Options




Map Legend


Flown Route
Filed Route
Departure Airport
Arrival Airport
Navaid (VOR, NDB)
Fix

Horizontal Profiles

Position Reports

Time Latitude Longitude Heading Altitude Ground
Speed
17-Oct-20 07:07 33.950328 -117.442784 27 820ft 0kts
17-Oct-20 07:08 33.950328 -117.442784 27 820ft 0kts
17-Oct-20 07:09 33.950328 -117.442784 27 820ft 0kts
17-Oct-20 07:10 33.950328 -117.442784 27 820ft 0kts
17-Oct-20 07:11 33.950328 -117.442784 27 820ft 0kts
17-Oct-20 07:12 33.950328 -117.442784 27 820ft 0kts
17-Oct-20 07:13 33.950328 -117.442784 27 820ft 0kts
17-Oct-20 07:14 33.950328 -117.442784 27 820ft 0kts
17-Oct-20 07:15 33.950328 -117.442784 27 820ft 0kts
17-Oct-20 07:16 33.950329 -117.442784 27 820ft 0kts
17-Oct-20 07:17 33.950329 -117.442784 27 820ft 0kts
17-Oct-20 07:18 33.950329 -117.442784 27 820ft 0kts
17-Oct-20 07:19 33.950329 -117.442784 27 820ft 0kts
17-Oct-20 07:20 33.950329 -117.442784 27 820ft 0kts
17-Oct-20 07:21 33.950485 -117.442687 27 820ft 5kts
17-Oct-20 07:22 33.950697 -117.442570 17 820ft 0kts
17-Oct-20 07:23 33.950817 -117.442126 102 820ft 0kts
17-Oct-20 07:24 33.950736 -117.441742 104 820ft 0kts
17-Oct-20 07:25 33.950736 -117.441742 104 820ft 0kts
17-Oct-20 07:26 33.950395 -117.442213 270 820ft 3kts
17-Oct-20 07:27 33.950703 -117.442495 5 820ft 0kts
17-Oct-20 07:28 33.950703 -117.442495 5 820ft 0kts
17-Oct-20 07:29 33.950741 -117.442491 5 820ft 0kts
17-Oct-20 07:30 33.950741 -117.442491 5 820ft 0kts
17-Oct-20 07:31 33.950741 -117.442491 5 820ft 0kts
17-Oct-20 07:32 33.950741 -117.442491 5 820ft 0kts
17-Oct-20 07:33 33.950741 -117.442491 5 820ft 0kts
17-Oct-20 07:34 33.950852 -117.442254 106 820ft 0kts
17-Oct-20 07:35 33.950753 -117.440187 57 820ft 4kts
17-Oct-20 07:36 33.949918 -117.435408 97 820ft 14kts
17-Oct-20 07:37 33.949978 -117.434976 39 820ft 0kts
17-Oct-20 07:38 33.949993 -117.434962 42 820ft 0kts
17-Oct-20 07:39 33.950121 -117.434837 34 820ft 0kts
17-Oct-20 07:40 33.950142 -117.434821 34 820ft 0kts
17-Oct-20 07:41 33.950978 -117.436855 283 820ft 52kts
17-Oct-20 07:42 33.958573 -117.477456 285 2199ft 158kts
17-Oct-20 07:43 33.969194 -117.533076 282 4053ft 195kts
17-Oct-20 07:44 33.941452 -117.592675 183 3966ft 258kts
17-Oct-20 07:45 33.887243 -117.544622 138 5222ft 240kts
17-Oct-20 07:46 33.871785 -117.481728 41 7172ft 213kts
17-Oct-20 07:47 33.916425 -117.492719 293 9478ft 179kts
17-Oct-20 07:48 33.886068 -117.524539 151 11040ft 215kts
17-Oct-20 07:49 33.831265 -117.471685 141 11020ft 282kts
17-Oct-20 07:50 33.768138 -117.409876 141 11002ft 301kts
17-Oct-20 07:51 33.701116 -117.347560 146 11002ft 307kts
17-Oct-20 07:52 33.630606 -117.289842 146 10996ft 306kts
17-Oct-20 07:53 33.560825 -117.231852 146 10995ft 305kts
17-Oct-20 07:54 33.488704 -117.178551 156 10982ft 304kts
17-Oct-20 07:55 33.406555 -117.197379 201 9688ft 304kts
17-Oct-20 07:56 33.330789 -117.228973 201 8125ft 276kts
17-Oct-20 07:57 33.260196 -117.258093 201 6607ft 264kts
17-Oct-20 07:58 33.193881 -117.285142 201 5962ft 234kts
17-Oct-20 07:59 33.128582 -117.311678 201 5986ft 257kts
17-Oct-20 08:00 33.063904 -117.350934 211 5090ft 261kts
17-Oct-20 08:01 33.001489 -117.392742 211 3794ft 255kts
17-Oct-20 08:02 32.940743 -117.433878 211 3009ft 247kts
17-Oct-20 08:03 32.881798 -117.473510 211 2977ft 225kts
17-Oct-20 08:04 32.834132 -117.454420 121 2574ft 218kts
17-Oct-20 08:05 32.802519 -117.391821 121 1963ft 211kts
17-Oct-20 08:06 32.770424 -117.339851 110 2069ft 184kts
17-Oct-20 08:07 32.756237 -117.283605 106 1512ft 174kts
17-Oct-20 08:08 32.745284 -117.238124 108 677ft 112kts
17-Oct-20 08:09 32.737413 -117.205365 108 120ft 102kts
17-Oct-20 08:11 32.732997 -117.187335 106 22ft 37kts
17-Oct-20 08:12 32.733323 -117.183906 80 22ft 0kts
17-Oct-20 08:13 32.732881 -117.182155 104 22ft 23kts
17-Oct-20 08:14 32.733738 -117.178800 61 22ft 5kts
17-Oct-20 08:15 32.733711 -117.178598 211 22ft 0kts
17-Oct-20 08:16 32.733711 -117.178598 211 22ft 0kts
17-Oct-20 08:17 32.733711 -117.178598 211 22ft 0kts
17-Oct-20 08:18 32.733711 -117.178598 211 22ft 0kts
17-Oct-20 08:19 32.733711 -117.178598 211 22ft 0kts
17-Oct-20 08:20 32.733711 -117.178598 211 22ft 0kts

Navigation Log

Ident Type
Flight plan parsing failed, navigation log unavailable